Time;durP1;ratioP1;P1;durP2;ratioP2;P2;SDS_P1;SDS_P2;PMS_P1;PMS_P2;Temp;Humidity;BMP_temperature;BMP_pressure;BME280_temperature;BME280_humidity;BME280_pressure;Samples;Min_cycle;Max_cycle;Signal;HPM_P1;HPM_P2
2021/01/02 00:00:10;;;;;;;4.05;1.02;;;18.30;99.70;;;;;;5071512;28;20861;-86
2021/01/02 00:03:01;;;;;;;5.47;0.90;;;18.50;99.20;;;;;;5071244;28;20382;-87
2021/01/02 00:05:41;;;;;;;3.63;1.10;;;18.50;99.10;;;;;;5070935;28;20378;-87
2021/01/02 00:08:15;;;;;;;7.97;1.10;;;18.50;98.80;;;;;;5070951;28;20891;-87
2021/01/02 00:11:05;;;;;;;7.28;1.30;;;18.40;99.40;;;;;;5070802;28;20406;-87
2021/01/02 00:13:55;;;;;;;4.07;1.02;;;18.50;99.60;;;;;;5070805;28;20436;-86
2021/01/02 00:16:56;;;;;;;4.07;1.02;;;18.50;98.30;;;;;;5070773;28;20694;-87
2021/01/02 00:19:54;;;;;;;6.30;1.10;;;18.40;99.10;;;;;;5054263;28;20476;-87
2021/01/02 00:22:40;;;;;;;5.15;1.08;;;18.50;99.00;;;;;;5070534;28;20370;-86
2021/01/02 00:25:15;;;;;;;5.90;1.10;;;18.40;99.10;;;;;;5070728;28;20397;-86
2021/01/02 00:27:51;;;;;;;6.65;0.98;;;18.40;99.20;;;;;;5070434;28;20786;-85
2021/01/02 00:30:35;;;;;;;6.18;1.15;;;18.50;98.60;;;;;;5070770;28;20401;-87
2021/01/02 00:33:30;;;;;;;5.10;1.17;;;18.50;99.00;;;;;;5070365;28;20370;-86
2021/01/02 00:36:09;;;;;;;5.93;1.17;;;18.80;98.90;;;;;;5070489;28;20362;-86
2021/01/02 00:38:38;;;;;;;4.93;1.25;;;19.00;98.70;;;;;;5070171;28;20390;-86
2021/01/02 00:41:06;;;;;;;4.78;0.98;;;19.20;98.70;;;;;;5052069;28;20370;-86
2021/01/02 00:43:37;;;;;;;8.30;1.30;;;19.40;97.60;;;;;;5070175;28;20463;-85
2021/01/02 00:46:04;;;;;;;5.25;1.08;;;19.50;97.80;;;;;;5070172;28;20412;-86
2021/01/02 00:48:32;;;;;;;4.90;1.10;;;19.60;97.40;;;;;;5070024;28;20366;-85
2021/01/02 00:51:03;;;;;;;7.22;0.80;;;19.60;96.80;;;;;;5069821;28;20420;-85
2021/01/02 00:54:08;;;;;;;5.15;1.00;;;19.80;96.10;;;;;;5070049;28;20371;-86
2021/01/02 00:57:03;;;;;;;4.47;1.17;;;19.70;96.10;;;;;;5059214;28;20393;-85
2021/01/02 01:00:04;;;;;;;7.82;1.10;;;19.50;96.40;;;;;;5070700;28;20368;-85
2021/01/02 01:02:37;;;;;;;5.00;0.88;;;19.40;96.90;;;;;;5069885;28;20367;-86
2021/01/02 01:05:09;;;;;;;3.85;1.40;;;19.30;97.50;;;;;;5069662;28;20370;-85
2021/01/02 01:07:37;;;;;;;3.30;1.00;;;19.40;96.80;;;;;;5069841;28;20374;-84
2021/01/02 01:10:16;;;;;;;3.10;0.80;;;19.50;96.80;;;;;;5069715;28;20390;-85
2021/01/02 01:12:44;;;;;;;3.75;1.00;;;19.50;96.80;;;;;;5069725;28;20892;-85
2021/01/02 01:15:12;;;;;;;3.33;0.87;;;19.50;96.70;;;;;;5069553;28;20366;-85
2021/01/02 01:17:56;;;;;;;4.82;0.90;;;19.40;96.70;;;;;;5069668;28;20394;-84
2021/01/02 01:20:28;;;;;;;4.20;0.98;;;19.50;97.50;;;;;;5069327;28;20951;-84
2021/01/02 01:23:26;;;;;;;4.97;1.13;;;19.70;97.10;;;;;;5069389;28;20378;-84
2021/01/02 01:26:34;;;;;;;5.30;0.77;;;19.80;96.80;;;;;;5069552;28;20856;-85
2021/01/02 01:29:03;;;;;;;5.88;0.98;;;19.80;97.30;;;;;;5051746;28;20393;-84
2021/01/02 01:31:43;;;;;;;4.40;1.00;;;20.10;96.50;;;;;;5052186;28;20686;-84
2021/01/02 01:34:22;;;;;;;4.30;0.90;;;20.10;96.10;;;;;;5069383;28;20899;-86
2021/01/02 01:36:50;;;;;;;4.32;0.80;;;20.20;96.60;;;;;;5069532;28;20397;-84
2021/01/02 01:39:22;;;;;;;3.63;0.73;;;20.20;95.70;;;;;;5069059;28;20386;-85
2021/01/02 01:41:58;;;;;;;2.83;0.90;;;20.20;95.50;;;;;;5069220;28;20454;-84
2021/01/02 01:44:44;;;;;;;2.60;0.83;;;20.00;94.70;;;;;;5069429;28;20371;-84
2021/01/02 01:47:14;;;;;;;3.90;0.82;;;19.80;95.70;;;;;;5069290;28;20402;-84
2021/01/02 01:49:58;;;;;;;3.03;0.95;;;19.90;95.70;;;;;;5068979;28;20445;-85
2021/01/02 01:53:03;;;;;;;5.15;0.80;;;19.90;95.80;;;;;;5069250;28;20393;-85
2021/01/02 01:55:43;;;;;;;3.33;0.93;;;20.00;96.00;;;;;;5069087;28;20410;-84
2021/01/02 01:58:12;;;;;;;3.13;0.80;;;20.10;95.50;;;;;;5069041;28;20374;-84
2021/01/02 02:00:51;;;;;;;3.53;0.75;;;20.20;95.50;;;;;;5069408;28;20369;-85
2021/01/02 02:03:27;;;;;;;3.95;1.05;;;20.40;95.30;;;;;;5069229;28;20375;-84
2021/01/02 02:06:24;;;;;;;3.50;0.65;;;20.50;94.70;;;;;;5068975;28;20374;-85
2021/01/02 02:09:00;;;;;;;4.07;0.82;;;20.90;94.10;;;;;;5052699;28;20735;-85
2021/01/02 02:11:36;;;;;;;4.32;1.00;;;20.90;94.60;;;;;;5068908;28;20394;-84
2021/01/02 02:14:37;;;;;;;4.10;0.93;;;20.90;93.90;;;;;;5068827;28;20738;-83
2021/01/02 02:17:05;;;;;;;4.05;0.93;;;20.70;93.60;;;;;;5068681;28;20394;-83
2021/01/02 02:20:01;;;;;;;2.47;0.83;;;20.40;94.30;;;;;;5068667;28;20370;-84
2021/01/02 02:22:34;;;;;;;2.78;0.75;;;20.30;95.60;;;;;;5067538;28;20386;-84
2021/01/02 02:25:04;;;;;;;3.27;0.80;;;20.30;94.60;;;;;;5068863;28;20410;-84
2021/01/02 02:27:34;;;;;;;2.65;0.65;;;20.20;94.90;;;;;;5068775;28;20392;-84
2021/01/02 02:30:38;;;;;;;3.42;0.88;;;20.20;95.30;;;;;;5068807;28;20390;-84
2021/01/02 02:33:08;;;;;;;3.80;1.00;;;20.30;94.50;;;;;;5047261;28;20382;-84
2021/01/02 02:35:37;;;;;;;5.07;0.90;;;20.40;95.00;;;;;;5051086;28;20745;-84
2021/01/02 02:38:04;;;;;;;1.98;0.57;;;20.40;94.90;;;;;;5068650;28;20440;-84
2021/01/02 02:40:33;;;;;;;4.78;0.73;;;20.50;94.90;;;;;;5068617;28;20428;-84
2021/01/02 02:43:03;;;;;;;2.42;0.63;;;20.40;94.80;;;;;;5068789;28;20795;-84
2021/01/02 02:45:32;;;;;;;1.80;0.40;;;20.60;94.70;;;;;;5068688;28;20373;-84
2021/01/02 02:48:06;;;;;;;2.25;0.50;;;20.70;94.80;;;;;;5068797;28;20402;-86
2021/01/02 02:50:33;;;;;;;1.02;0.40;;;20.80;94.60;;;;;;5069867;28;20406;-84
2021/01/02 02:53:11;;;;;;;2.78;0.70;;;20.80;93.60;;;;;;5069071;28;20376;-83
2021/01/02 02:55:42;;;;;;;2.80;0.57;;;20.70;93.90;;;;;;5068992;28;20382;-83
2021/01/02 02:58:11;;;;;;;3.58;0.57;;;20.70;94.10;;;;;;5071209;28;20392;-83
2021/01/02 03:00:39;;;;;;;3.27;0.50;;;20.60;94.50;;;;;;5072386;28;20389;-83
2021/01/02 03:03:10;;;;;;;3.67;0.80;;;20.40;94.70;;;;;;5072915;28;20443;-83
2021/01/02 03:05:39;;;;;;;5.07;0.90;;;20.40;94.90;;;;;;5072561;28;20386;-83
2021/01/02 03:08:07;;;;;;;3.88;0.70;;;20.40;96.00;;;;;;5072095;28;20878;-84
2021/01/02 03:10:35;;;;;;;2.67;0.80;;;20.40;96.10;;;;;;5071799;28;20409;-83
2021/01/02 03:13:02;;;;;;;2.25;0.68;;;20.30;95.60;;;;;;5071869;28;20424;-83
2021/01/02 03:15:37;;;;;;;4.53;0.60;;;20.30;95.90;;;;;;5072006;28;20922;-83
2021/01/02 03:18:04;;;;;;;3.17;0.57;;;20.20;96.00;;;;;;5072102;28;20419;-85
2021/01/02 03:20:31;;;;;;;2.63;0.70;;;20.10;96.40;;;;;;5071991;28;20371;-84
2021/01/02 03:22:58;;;;;;;4.13;0.70;;;20.10;96.80;;;;;;5071780;28;20378;-84
2021/01/02 03:25:25;;;;;;;1.80;0.57;;;20.20;96.90;;;;;;5071836;28;20409;-84
2021/01/02 03:27:53;;;;;;;2.30;0.60;;;20.10;96.80;;;;;;5071695;28;20431;-84
2021/01/02 03:30:21;;;;;;;3.00;0.80;;;20.10;97.30;;;;;;5071570;28;20868;-84
2021/01/02 03:32:49;;;;;;;1.73;0.60;;;20.00;97.20;;;;;;5072026;28;20453;-84
2021/01/02 03:35:17;;;;;;;2.58;0.70;;;19.90;97.20;;;;;;5071701;28;20405;-85
2021/01/02 03:37:47;;;;;;;1.55;0.60;;;19.80;97.50;;;;;;5071582;28;20366;-83
2021/01/02 03:40:17;;;;;;;2.80;0.77;;;19.90;97.30;;;;;;5070959;28;20409;-83
2021/01/02 03:42:46;;;;;;;1.67;0.50;;;19.90;97.40;;;;;;5071545;28;20366;-83
2021/01/02 03:45:16;;;;;;;2.22;0.55;;;19.80;97.40;;;;;;5071656;28;20378;-82
2021/01/02 03:47:51;;;;;;;2.75;0.50;;;19.70;97.80;;;;;;5071312;28;20845;-82
2021/01/02 03:50:18;;;;;;;2.40;0.70;;;19.70;97.90;;;;;;5071283;28;20405;-82
2021/01/02 03:52:45;;;;;;;2.40;0.57;;;19.70;98.10;;;;;;5071116;28;20390;-84
2021/01/02 03:55:13;;;;;;;4.32;0.60;;;19.70;98.20;;;;;;5071115;28;20497;-84
2021/01/02 03:57:40;;;;;;;2.93;0.50;;;19.70;98.60;;;;;;5070946;28;20776;-83
2021/01/02 04:00:09;;;;;;;3.35;0.60;;;19.70;98.30;;;;;;5071079;28;20378;-83
2021/01/02 04:02:36;;;;;;;4.10;0.82;;;19.70;98.60;;;;;;5071693;28;20370;-83
2021/01/02 04:05:05;;;;;;;3.15;0.80;;;19.60;98.70;;;;;;5071057;28;20738;-83
2021/01/02 04:07:32;;;;;;;4.50;0.60;;;19.50;98.90;;;;;;5070703;28;20485;-85
2021/01/02 04:09:59;;;;;;;3.50;1.00;;;19.50;99.90;;;;;;5069686;28;20394;-84
2021/01/02 04:12:26;;;;;;;2.08;0.60;;;19.70;99.90;;;;;;5070943;28;20374;-85
2021/01/02 04:14:53;;;;;;;3.83;0.68;;;19.90;99.50;;;;;;5070813;28;20367;-85
2021/01/02 04:17:20;;;;;;;2.97;0.82;;;20.00;99.10;;;;;;5070535;28;20404;-83
2021/01/02 04:19:47;;;;;;;2.97;0.80;;;19.90;98.60;;;;;;5070675;28;20394;-84
2021/01/02 04:22:14;;;;;;;2.97;0.80;;;19.70;99.70;;;;;;5070823;28;20373;-84
2021/01/02 04:24:41;;;;;;;2.90;0.98;;;19.60;99.90;;;;;;5070736;28;20378;-84
2021/01/02 04:27:08;;;;;;;3.13;0.63;;;19.60;99.90;;;;;;5070823;28;20699;-84
2021/01/02 04:29:35;;;;;;;2.70;0.70;;;19.80;99.90;;;;;;5070471;28;20401;-84
2021/01/02 04:32:02;;;;;;;3.30;1.15;;;19.90;99.90;;;;;;5071076;28;20457;-83
2021/01/02 04:34:29;;;;;;;2.83;0.75;;;19.90;99.90;;;;;;5070535;28;20373;-85
2021/01/02 04:36:57;;;;;;;1.25;0.80;;;19.80;99.90;;;;;;5070244;28;20473;-83
2021/01/02 04:39:24;;;;;;;1.88;0.65;;;19.80;99.90;;;;;;5070062;28;20443;-84
2021/01/02 04:41:51;;;;;;;2.15;0.70;;;19.90;99.90;;;;;;5070293;28;20440;-84
2021/01/02 04:44:23;;;;;;;3.08;0.73;;;19.90;99.90;;;;;;5069450;28;20453;-85
2021/01/02 04:46:50;;;;;;;1.67;0.60;;;19.90;99.80;;;;;;5070522;28;20374;-82
2021/01/02 04:49:17;;;;;;;2.40;0.55;;;19.90;99.60;;;;;;5070036;28;20386;-83
2021/01/02 04:51:44;;;;;;;1.23;0.52;;;19.80;99.60;;;;;;5070137;28;20402;-84
2021/01/02 04:54:14;;;;;;;1.58;0.70;;;19.70;99.50;;;;;;5070004;28;20385;-84
2021/01/02 04:56:41;;;;;;;3.30;0.85;;;19.60;99.90;;;;;;5069988;28;20861;-85
2021/01/02 04:59:13;;;;;;;2.77;0.80;;;19.60;99.90;;;;;;5070094;28;20440;-85
2021/01/02 05:01:41;;;;;;;1.27;0.70;;;19.60;99.90;;;;;;5070291;28;20382;-84
2021/01/02 05:04:08;;;;;;;3.00;0.85;;;19.60;99.90;;;;;;5070012;28;20381;-85
2021/01/02 05:06:36;;;;;;;2.87;0.67;;;19.70;99.90;;;;;;5070116;28;20405;-85
2021/01/02 05:09:06;;;;;;;2.97;0.50;;;19.80;99.90;;;;;;5069813;28;20370;-85
2021/01/02 05:11:40;;;;;;;2.65;0.65;;;19.80;99.80;;;;;;5069903;28;20394;-84
2021/01/02 05:14:08;;;;;;;5.25;0.70;;;19.90;99.90;;;;;;5069620;28;20370;-85
2021/01/02 05:16:41;;;;;;;1.98;0.55;;;19.90;99.40;;;;;;5069541;28;20934;-86
2021/01/02 05:19:10;;;;;;;2.85;0.60;;;19.80;99.90;;;;;;5069565;28;20381;-85
2021/01/02 05:21:48;;;;;;;2.53;0.50;;;19.80;99.60;;;;;;5069344;28;20434;-85
2021/01/02 05:24:20;;;;;;;2.53;0.63;;;19.80;99.90;;;;;;5069547;28;20449;-85
2021/01/02 05:26:56;;;;;;;2.25;0.50;;;19.90;99.90;;;;;;5069341;28;20382;-86
2021/01/02 05:29:30;;;;;;;4.70;0.90;;;20.00;99.90;;;;;;5069536;28;20853;-84
2021/01/02 05:32:02;;;;;;;3.03;0.63;;;20.00;99.40;;;;;;5069868;28;20374;-85
2021/01/02 05:34:31;;;;;;;5.57;0.88;;;19.90;99.10;;;;;;5069413;28;20381;-85
2021/01/02 05:37:08;;;;;;;3.30;0.82;;;19.80;99.40;;;;;;5069350;28;20382;-85
2021/01/02 05:39:50;;;;;;;3.35;0.60;;;19.70;99.80;;;;;;5069062;28;21273;-85
2021/01/02 05:42:21;;;;;;;3.75;0.80;;;19.70;99.80;;;;;;5069241;28;20468;-84
2021/01/02 05:44:48;;;;;;;4.03;0.80;;;19.60;99.90;;;;;;5069326;28;20381;-84
2021/01/02 05:47:27;;;;;;;3.13;0.70;;;19.60;99.90;;;;;;5069322;28;20439;-85
2021/01/02 05:49:58;;;;;;;4.05;0.80;;;19.50;99.90;;;;;;5069141;28;20492;-85
2021/01/02 05:52:33;;;;;;;4.70;0.80;;;19.50;99.90;;;;;;5069111;28;20778;-84
2021/01/02 05:55:00;;;;;;;5.40;0.93;;;19.50;99.80;;;;;;5069147;28;20385;-85
2021/01/02 05:57:29;;;;;;;4.22;0.77;;;19.60;99.90;;;;;;5069173;28;20374;-85
2021/01/02 05:59:57;;;;;;;3.78;0.80;;;19.60;99.90;;;;;;5069025;28;20362;-85
2021/01/02 06:02:32;;;;;;;3.03;0.60;;;19.70;99.90;;;;;;5069325;28;20465;-85
2021/01/02 06:05:10;;;;;;;5.13;0.90;;;19.70;99.90;;;;;;5069028;28;20879;-85
2021/01/02 06:07:39;;;;;;;2.53;0.60;;;19.80;99.80;;;;;;5069112;28;20400;-85
2021/01/02 06:10:08;;;;;;;4.30;1.05;;;19.80;99.60;;;;;;5069179;28;20428;-85
2021/01/02 06:12:40;;;;;;;4.17;0.67;;;19.80;99.20;;;;;;5070169;28;20390;-85
2021/01/02 06:15:10;;;;;;;3.60;0.88;;;19.80;99.30;;;;;;5069066;28;20358;-85
2021/01/02 06:17:43;;;;;;;3.13;0.63;;;19.60;99.60;;;;;;5034719;28;20751;-86
2021/01/02 06:20:18;;;;;;;5.20;0.80;;;19.60;99.60;;;;;;5069118;28;20437;-85
2021/01/02 06:22:45;;;;;;;3.80;0.90;;;19.60;99.90;;;;;;5069302;28;20462;-85
2021/01/02 06:25:13;;;;;;;4.65;0.90;;;19.50;99.90;;;;;;5069885;28;20427;-85
2021/01/02 06:27:42;;;;;;;4.80;1.08;;;19.50;99.90;;;;;;5071460;28;20381;-84
2021/01/02 06:30:14;;;;;;;4.13;0.80;;;19.50;99.90;;;;;;5068929;28;20409;-85
2021/01/02 06:32:45;;;;;;;8.45;1.33;;;19.30;99.90;;;;;;5071516;28;20451;-85
2021/01/02 06:35:12;;;;;;;6.32;1.08;;;19.20;99.90;;;;;;5072941;28;20535;-85
2021/01/02 06:37:48;;;;;;;6.50;1.23;;;19.20;99.90;;;;;;5072576;28;20378;-83
2021/01/02 06:40:22;;;;;;;5.70;1.13;;;19.20;99.90;;;;;;5068524;28;20413;-83
2021/01/02 06:43:03;;;;;;;6.13;1.50;;;19.10;99.90;;;;;;5071821;28;20389;-83
2021/01/02 06:45:36;;;;;;;7.13;1.20;;;19.00;99.90;;;;;;5060130;28;20399;-83
2021/01/02 06:48:26;;;;;;;6.35;0.90;;;19.00;99.90;;;;;;5070845;28;20382;-83
2021/01/02 06:51:01;;;;;;;5.07;1.17;;;19.00;99.90;;;;;;5062125;28;20428;-85
2021/01/02 06:53:35;;;;;;;7.38;1.27;;;18.90;99.90;;;;;;5068969;28;20386;-83
2021/01/02 06:56:06;;;;;;;3.83;1.15;;;19.00;99.90;;;;;;5069559;28;20869;-85
2021/01/02 06:58:46;;;;;;;9.23;1.38;;;19.00;99.90;;;;;;5069149;28;20501;-83
2021/01/02 07:01:16;;;;;;;7.93;1.00;;;19.00;99.90;;;;;;5066010;28;20392;-85
2021/01/02 07:03:48;;;;;;;6.65;1.33;;;18.90;99.90;;;;;;5066684;28;20780;-84
2021/01/02 07:06:24;;;;;;;7.82;1.15;;;18.90;99.90;;;;;;5065080;28;20398;-83
2021/01/02 07:09:15;;;;;;;6.22;1.48;;;19.00;99.90;;;;;;5069505;28;20423;-83
2021/01/02 07:11:43;;;;;;;6.90;0.93;;;18.90;99.90;;;;;;5057074;28;20398;-83
2021/01/02 07:14:11;;;;;;;5.15;1.17;;;18.90;99.90;;;;;;5062068;28;20431;-84
2021/01/02 07:16:50;;;;;;;7.78;1.10;;;18.80;99.90;;;;;;5072192;28;20374;-84
2021/01/02 07:19:26;;;;;;;7.82;1.42;;;18.80;99.90;;;;;;5071664;28;20457;-84
2021/01/02 07:22:19;;;;;;;7.00;1.25;;;18.70;99.90;;;;;;5062316;28;20399;-85
2021/01/02 07:25:03;;;;;;;7.50;1.00;;;18.70;99.90;;;;;;5071882;28;20389;-84
2021/01/02 07:27:35;;;;;;;5.90;1.10;;;18.60;99.90;;;;;;5068217;28;20405;-84
2021/01/02 07:30:09;;;;;;;10.23;1.30;;;18.70;99.90;;;;;;5075251;28;20398;-84
2021/01/02 07:32:41;;;;;;;6.57;1.30;;;18.70;99.90;;;;;;5077709;28;20424;-82
2021/01/02 07:35:14;;;;;;;9.15;1.50;;;18.70;99.90;;;;;;5071920;28;20538;-80
2021/01/02 07:37:46;;;;;;;6.35;1.25;;;18.70;99.90;;;;;;5067225;28;20386;-85
2021/01/02 07:40:18;;;;;;;6.93;1.20;;;18.80;99.90;;;;;;5053054;28;20453;-86
2021/01/02 07:42:52;;;;;;;11.80;1.40;;;18.80;99.90;;;;;;5045036;28;20394;-83
2021/01/02 07:45:24;;;;;;;9.40;1.35;;;18.80;99.90;;;;;;5064825;28;20789;-84
2021/01/02 07:47:56;;;;;;;8.23;1.25;;;18.70;99.90;;;;;;5052167;28;20441;-86
2021/01/02 07:50:25;;;;;;;10.82;1.30;;;18.80;99.90;;;;;;5067164;28;20471;-85
2021/01/02 07:52:57;;;;;;;6.97;1.07;;;18.80;99.90;;;;;;5062337;28;20442;-85
2021/01/02 07:55:25;;;;;;;7.97;1.33;;;18.80;99.90;;;;;;5065312;28;20424;-85
2021/01/02 07:57:54;;;;;;;9.57;1.20;;;18.80;99.90;;;;;;5071046;28;20382;-86
2021/01/02 08:00:22;;;;;;;9.07;1.50;;;18.80;99.90;;;;;;5071541;28;20419;-87
2021/01/02 08:02:50;;;;;;;6.80;1.00;;;18.80;99.90;;;;;;5069917;28;20382;-84
2021/01/02 08:05:21;;;;;;;6.05;1.23;;;18.80;99.90;;;;;;5064601;28;20882;-87
2021/01/02 08:08:00;;;;;;;9.75;1.63;;;18.70;99.90;;;;;;5070909;28;20398;-86
2021/01/02 08:10:28;;;;;;;8.23;1.50;;;18.70;99.90;;;;;;5067254;28;20871;-87
2021/01/02 08:12:57;;;;;;;5.93;1.10;;;18.70;99.90;;;;;;5059489;28;20871;-87
2021/01/02 08:15:35;;;;;;;7.03;1.20;;;18.60;99.90;;;;;;5070469;28;20386;-87
2021/01/02 08:18:10;;;;;;;6.93;1.00;;;18.60;99.90;;;;;;5052841;28;20463;-85
2021/01/02 08:20:41;;;;;;;6.35;1.00;;;18.60;99.90;;;;;;5062593;28;20714;-89
2021/01/02 08:23:08;;;;;;;6.38;1.20;;;18.60;99.90;;;;;;5041616;28;20391;-88
2021/01/02 08:25:36;;;;;;;5.67;1.13;;;18.60;99.90;;;;;;5074912;28;20394;-88
2021/01/02 08:28:03;;;;;;;5.95;1.00;;;18.60;99.90;;;;;;5049424;28;20393;-85
2021/01/02 08:30:31;;;;;;;4.13;1.00;;;18.60;99.90;;;;;;5063348;28;20394;-86
2021/01/02 08:32:59;;;;;;;6.37;1.00;;;18.50;99.90;;;;;;5066295;28;20401;-89
2021/01/02 08:35:35;;;;;;;5.72;1.02;;;18.50;99.90;;;;;;5066516;28;20418;-87
2021/01/02 08:38:10;;;;;;;5.33;0.83;;;18.60;99.90;;;;;;5067766;28;20406;-86
2021/01/02 08:40:39;;;;;;;2.42;0.60;;;18.50;99.90;;;;;;5066879;28;20753;-88
2021/01/02 08:43:06;;;;;;;1.10;0.70;;;18.50;99.90;;;;;;5064160;28;20402;-88
2021/01/02 08:45:39;;;;;;;2.10;0.80;;;18.50;99.90;;;;;;5059280;28;20376;-88
2021/01/02 08:48:09;;;;;;;5.40;1.10;;;18.50;99.90;;;;;;5058469;28;20459;-88
2021/01/02 08:50:42;;;;;;;4.40;0.82;;;18.50;99.90;;;;;;5063649;28;20510;-88
2021/01/02 08:53:28;;;;;;;3.83;1.00;;;18.50;99.90;;;;;;5069205;28;20378;-88
2021/01/02 08:55:55;;;;;;;3.90;1.00;;;18.50;99.90;;;;;;5068494;28;20403;-88
2021/01/02 08:58:32;;;;;;;2.92;0.88;;;18.50;99.90;;;;;;5052499;28;20375;-87
2021/01/02 09:00:59;;;;;;;5.50;0.68;;;18.50;99.90;;;;;;5056611;28;20404;-86
2021/01/02 09:03:26;;;;;;;6.22;1.00;;;18.50;99.90;;;;;;5068122;28;20385;-90
2021/01/02 09:05:56;;;;;;;5.03;0.80;;;18.50;99.90;;;;;;5060765;28;20397;-89
2021/01/02 09:08:23;;;;;;;4.13;0.60;;;18.50;99.90;;;;;;5052177;28;20504;-87
2021/01/02 09:10:58;;;;;;;4.72;0.85;;;18.50;99.90;;;;;;5059345;28;21271;-89
2021/01/02 09:13:26;;;;;;;6.10;0.93;;;18.50;99.90;;;;;;5066065;28;20386;-89
2021/01/02 09:15:59;;;;;;;3.75;0.70;;;18.50;99.90;;;;;;5062413;28;20449;-88
2021/01/02 09:18:29;;;;;;;4.30;0.57;;;18.50;99.90;;;;;;5055063;28;20430;-86
2021/01/02 09:21:06;;;;;;;4.38;0.80;;;18.50;99.90;;;;;;5066476;28;20397;-86
2021/01/02 09:23:41;;;;;;;5.22;0.80;;;18.50;99.90;;;;;;5066990;28;20400;-87
2021/01/02 09:26:27;;;;;;;5.72;0.70;;;18.50;99.90;;;;;;5066426;28;20394;-87
2021/01/02 09:28:57;;;;;;;2.95;0.63;;;18.50;99.90;;;;;;5063115;28;20406;-87
2021/01/02 09:31:25;;;;;;;9.32;1.02;;;18.50;99.90;;;;;;5057639;28;20409;-85
2021/01/02 09:33:53;;;;;;;8.90;1.10;;;18.50;99.90;;;;;;5067548;28;20480;-86
2021/01/02 09:36:21;;;;;;;3.03;0.68;;;18.50;99.90;;;;;;5060364;28;20386;-86
2021/01/02 09:38:49;;;;;;;4.45;0.70;;;18.50;99.90;;;;;;5062474;28;20406;-86
2021/01/02 09:41:19;;;;;;;5.20;0.70;;;18.50;99.90;;;;;;5066004;28;20386;-86
2021/01/02 09:43:47;;;;;;;3.47;0.70;;;18.40;99.90;;;;;;5065862;28;20497;-85
2021/01/02 09:46:18;;;;;;;4.15;0.82;;;18.40;99.90;;;;;;5058286;28;20480;-84
2021/01/02 09:48:47;;;;;;;4.00;0.82;;;18.40;99.90;;;;;;5055475;28;20385;-85
2021/01/02 09:51:15;;;;;;;3.45;0.73;;;18.40;99.90;;;;;;5067060;28;20398;-82
2021/01/02 09:53:42;;;;;;;3.95;0.60;;;18.30;99.90;;;;;;5050579;28;20372;-83
2021/01/02 09:56:09;;;;;;;1.50;0.50;;;18.30;99.90;;;;;;5046390;28;20416;-83
2021/01/02 09:58:37;;;;;;;2.00;0.52;;;18.30;99.90;;;;;;5047242;28;20433;-83
2021/01/02 10:01:05;;;;;;;2.73;0.60;;;18.20;99.90;;;;;;5063372;28;20386;-83
2021/01/02 10:03:33;;;;;;;1.63;0.43;;;18.30;99.90;;;;;;5046977;28;20384;-82
2021/01/02 10:06:00;;;;;;;2.05;0.40;;;18.30;99.90;;;;;;5055629;28;20394;-81
2021/01/02 10:08:27;;;;;;;3.05;0.40;;;18.20;99.90;;;;;;5047074;28;20395;-82
2021/01/02 10:10:54;;;;;;;3.78;0.50;;;18.20;99.90;;;;;;5048565;28;20408;-81
2021/01/02 10:13:21;;;;;;;2.90;0.70;;;18.20;99.90;;;;;;5050474;28;20482;-82
2021/01/02 10:15:48;;;;;;;3.55;0.70;;;18.20;99.90;;;;;;5045945;28;20903;-82
2021/01/02 10:18:16;;;;;;;2.70;0.45;;;18.20;99.90;;;;;;5063560;28;20380;-83
2021/01/02 10:20:43;;;;;;;3.07;0.50;;;18.20;99.90;;;;;;5065584;28;20382;-83
2021/01/02 10:23:10;;;;;;;2.75;0.50;;;18.20;99.90;;;;;;5055564;28;20909;-83
2021/01/02 10:25:37;;;;;;;2.22;0.50;;;18.20;99.90;;;;;;5045719;28;20450;-82
2021/01/02 10:28:04;;;;;;;4.00;0.60;;;18.20;99.90;;;;;;5063046;28;20884;-83
2021/01/02 10:30:31;;;;;;;4.32;0.90;;;18.20;99.90;;;;;;5065687;28;21099;-83
2021/01/02 10:32:58;;;;;;;5.40;0.70;;;18.20;99.90;;;;;;5065817;28;20966;-84
2021/01/02 10:35:25;;;;;;;6.88;0.85;;;18.20;99.90;;;;;;5066068;28;20369;-83
2021/01/02 10:37:53;;;;;;;3.90;0.82;;;18.20;99.90;;;;;;5065954;28;20405;-83
2021/01/02 10:40:20;;;;;;;5.95;1.33;;;18.20;99.90;;;;;;5066221;28;20378;-85
2021/01/02 10:42:47;;;;;;;9.25;1.13;;;18.20;99.90;;;;;;5066407;28;20432;-84
2021/01/02 10:45:17;;;;;;;9.13;0.93;;;18.20;99.90;;;;;;5066155;28;20366;-85
2021/01/02 10:47:44;;;;;;;6.80;0.93;;;18.20;99.90;;;;;;5065763;28;20389;-85
2021/01/02 10:50:12;;;;;;;5.25;1.00;;;18.20;99.90;;;;;;5066591;28;20394;-85
2021/01/02 10:52:39;;;;;;;8.57;1.08;;;18.20;99.90;;;;;;5066619;28;20370;-85
2021/01/02 10:55:07;;;;;;;3.95;0.82;;;18.20;99.90;;;;;;5065530;28;20405;-84
2021/01/02 10:57:34;;;;;;;4.63;0.73;;;18.30;99.90;;;;;;5047492;28;20471;-85
2021/01/02 11:00:04;;;;;;;4.13;0.73;;;18.30;99.90;;;;;;5066238;28;20436;-84
2021/01/02 11:02:31;;;;;;;3.45;0.68;;;18.30;99.90;;;;;;5066080;28;20400;-85
2021/01/02 11:04:58;;;;;;;2.67;0.60;;;18.30;99.90;;;;;;5067635;28;20885;-85
2021/01/02 11:07:25;;;;;;;7.13;0.60;;;18.30;99.90;;;;;;5066767;28;20374;-85
2021/01/02 11:09:53;;;;;;;4.55;0.70;;;18.30;99.90;;;;;;5066543;28;20390;-85
2021/01/02 11:12:21;;;;;;;6.10;0.77;;;18.30;99.90;;;;;;5067063;28;20378;-84
2021/01/02 11:14:52;;;;;;;4.78;0.70;;;18.30;99.90;;;;;;5066745;28;20414;-88
2021/01/02 11:17:20;;;;;;;5.47;0.82;;;18.30;99.90;;;;;;5066530;28;20394;-84
2021/01/02 11:19:47;;;;;;;4.13;0.90;;;18.30;99.90;;;;;;5070304;28;20470;-85
2021/01/02 11:22:14;;;;;;;7.10;1.33;;;18.30;99.90;;;;;;5069548;28;20401;-88
2021/01/02 11:24:44;;;;;;;6.15;1.15;;;18.30;99.90;;;;;;5069900;28;20457;-87
2021/01/02 11:27:12;;;;;;;4.60;0.98;;;18.30;99.90;;;;;;5069156;28;20916;-86
2021/01/02 11:29:39;;;;;;;8.27;1.00;;;18.30;99.90;;;;;;5065576;28;20913;-87
2021/01/02 11:32:09;;;;;;;9.88;1.35;;;18.30;99.90;;;;;;5050202;28;20978;-87
2021/01/02 11:34:37;;;;;;;7.53;1.17;;;18.30;99.90;;;;;;5068568;28;20390;-86
2021/01/02 11:37:06;;;;;;;12.32;1.23;;;18.40;99.90;;;;;;5066698;28;20428;-86
2021/01/02 11:39:34;;;;;;;11.48;1.27;;;18.30;99.90;;;;;;5052527;28;20401;-85
2021/01/02 11:42:03;;;;;;;8.27;1.20;;;18.30;99.90;;;;;;5061496;28;20477;-86
2021/01/02 11:44:30;;;;;;;13.63;1.55;;;18.30;99.90;;;;;;5069863;28;20448;-86
2021/01/02 11:47:01;;;;;;;11.00;1.60;;;18.30;99.90;;;;;;5065097;28;21203;-86
2021/01/02 11:49:34;;;;;;;12.45;1.63;;;18.30;99.90;;;;;;5056715;28;20405;-84
2021/01/02 11:52:05;;;;;;;11.77;2.00;;;18.30;99.90;;;;;;5067104;28;20393;-84
2021/01/02 11:54:34;;;;;;;12.30;1.85;;;18.30;99.90;;;;;;5066273;28;20800;-84
2021/01/02 11:57:03;;;;;;;12.40;1.58;;;18.30;99.90;;;;;;5062139;28;20413;-85
2021/01/02 11:59:30;;;;;;;16.95;1.60;;;18.30;99.90;;;;;;5087809;28;20372;-86
2021/01/02 12:02:00;;;;;;;14.17;2.10;;;18.30;99.90;;;;;;5067202;28;20387;-85
2021/01/02 12:04:29;;;;;;;12.88;1.52;;;18.40;99.90;;;;;;5068667;28;20390;-85
2021/01/02 12:06:56;;;;;;;11.75;1.80;;;18.40;99.90;;;;;;5057493;28;20389;-86
2021/01/02 12:09:25;;;;;;;19.30;2.15;;;18.40;99.90;;;;;;5067368;28;20400;-85
2021/01/02 12:11:53;;;;;;;12.63;1.73;;;18.40;99.90;;;;;;5067767;28;20967;-85
2021/01/02 12:14:23;;;;;;;16.20;1.85;;;18.40;99.90;;;;;;5071167;28;20412;-86
2021/01/02 12:16:52;;;;;;;16.90;2.30;;;18.30;99.90;;;;;;5068598;28;20398;-86
2021/01/02 12:19:24;;;;;;;15.35;2.00;;;18.40;99.90;;;;;;5058740;28;20378;-85
2021/01/02 12:21:56;;;;;;;12.80;2.28;;;18.40;99.90;;;;;;5070794;28;20431;-85
2021/01/02 12:24:23;;;;;;;12.73;1.70;;;18.40;99.90;;;;;;5069991;28;20401;-85
2021/01/02 12:26:54;;;;;;;17.13;1.98;;;18.30;99.90;;;;;;5070906;28;20374;-85
2021/01/02 12:29:23;;;;;;;13.98;1.90;;;18.40;99.90;;;;;;5069694;28;20393;-86
2021/01/02 12:31:52;;;;;;;12.10;1.60;;;18.40;99.90;;;;;;5070447;28;20394;-86
2021/01/02 12:34:22;;;;;;;12.90;1.83;;;18.30;99.90;;;;;;5070936;28;20413;-86
2021/01/02 12:36:50;;;;;;;11.88;1.80;;;18.30;99.90;;;;;;5067648;28;20394;-86
2021/01/02 12:39:20;;;;;;;16.73;1.83;;;18.30;99.90;;;;;;5066570;28;20478;-87
2021/01/02 12:41:47;;;;;;;12.88;1.95;;;18.30;99.90;;;;;;5064468;28;20600;-85
2021/01/02 12:44:15;;;;;;;12.82;1.80;;;18.30;99.90;;;;;;5063284;28;20397;-86
2021/01/02 12:46:48;;;;;;;12.45;1.67;;;18.40;99.90;;;;;;5064449;28;20402;-86
2021/01/02 12:49:19;;;;;;;15.60;1.95;;;18.30;99.90;;;;;;5064221;28;20795;-86
2021/01/02 12:51:47;;;;;;;12.55;1.80;;;18.40;99.90;;;;;;5067858;28;20440;-86
2021/01/02 12:54:14;;;;;;;10.95;1.92;;;18.40;99.90;;;;;;5068478;28;20399;-86
2021/01/02 12:56:46;;;;;;;14.15;2.42;;;18.30;99.90;;;;;;5069654;28;20417;-86
2021/01/02 12:59:16;;;;;;;12.90;2.23;;;18.30;99.90;;;;;;5067473;28;20390;-85
2021/01/02 13:01:43;;;;;;;9.23;1.52;;;18.30;99.90;;;;;;5068350;28;20478;-87
2021/01/02 13:04:10;;;;;;;14.32;1.90;;;18.30;99.90;;;;;;5068949;28;20938;-86
2021/01/02 13:06:37;;;;;;;15.52;2.33;;;18.30;99.90;;;;;;5050860;28;20406;-87
2021/01/02 13:09:06;;;;;;;14.07;1.88;;;18.40;99.90;;;;;;5069099;28;20398;-86